Time;durP1;ratioP1;P1;durP2;ratioP2;P2;SDS_P1;SDS_P2;PMS_P1;PMS_P2;Temp;Humidity;BMP_temperature;BMP_pressure;BME280_temperature;BME280_humidity;BME280_pressure;Samples;Min_cycle;Max_cycle;Signal;HPM_P1;HPM_P2
2023/03/03 00:00:46;;;;;;;4.28;1.40;;;;;;;0.40;84.14;98079.63;5066481;28;20755;-37
2023/03/03 00:03:17;;;;;;;5.75;1.58;;;;;;;0.46;84.54;98076.09;5068449;28;20040;-36
2023/03/03 00:05:42;;;;;;;5.45;1.00;;;;;;;0.43;83.98;98070.16;5052481;28;20040;-36
2023/03/03 00:08:09;;;;;;;3.05;1.17;;;;;;;0.38;84.39;98066.88;5066150;28;20045;-37
2023/03/03 00:10:35;;;;;;;1.90;0.90;;;;;;;0.39;84.66;98071.13;5066873;28;20052;-37
2023/03/03 00:13:01;;;;;;;3.50;1.30;;;;;;;0.43;84.93;98064.22;5067001;28;20085;-36
2023/03/03 00:15:28;;;;;;;5.35;1.38;;;;;;;0.20;84.90;98033.19;5067486;28;20086;-37
2023/03/03 00:17:55;;;;;;;3.35;1.15;;;;;;;0.23;85.64;98030.53;5064904;28;20040;-36
2023/03/03 00:20:24;;;;;;;2.15;1.10;;;;;;;0.47;85.64;98063.31;5066146;28;20094;-36
2023/03/03 00:22:50;;;;;;;2.15;0.73;;;;;;;0.42;85.83;98055.69;5066134;28;20059;-37
2023/03/03 00:25:33;;;;;;;4.28;1.23;;;;;;;0.23;85.98;98028.84;5066617;28;20053;-35
2023/03/03 00:28:28;;;;;;;3.00;1.23;;;;;;;0.39;86.65;98044.72;5083427;28;20369;-36
2023/03/03 00:30:57;;;;;;;2.50;0.90;;;;;;;0.41;86.57;98038.72;5066662;28;20083;-35
2023/03/03 00:33:32;;;;;;;3.65;1.27;;;;;;;0.43;86.79;98039.50;5066335;28;20179;-36
2023/03/03 00:36:42;;;;;;;2.58;1.15;;;;;;;0.50;87.16;98041.94;5067844;28;20086;-36
2023/03/03 00:39:28;;;;;;;2.92;0.80;;;;;;;0.47;87.00;98026.66;5063826;28;20126;-36
2023/03/03 00:41:54;;;;;;;8.75;1.30;;;;;;;0.47;87.51;98022.41;5066537;28;20076;-37
2023/03/03 00:44:32;;;;;;;2.03;0.73;;;;;;;0.49;87.92;98020.63;5049400;28;20516;-37
2023/03/03 00:47:11;;;;;;;5.03;0.65;;;;;;;0.53;88.05;98021.41;5064218;28;20036;-35
2023/03/03 00:49:36;;;;;;;4.95;0.98;;;;;;;0.53;87.48;98008.63;5066505;28;20045;-36
2023/03/03 00:52:15;;;;;;;3.65;1.27;;;;;;;0.59;87.77;98011.91;5066673;28;20461;-37
2023/03/03 00:54:41;;;;;;;2.95;1.30;;;;;;;0.66;87.88;98012.63;5066883;28;20076;-35
2023/03/03 00:57:07;;;;;;;3.40;1.73;;;;;;;0.70;87.69;98001.44;5047981;28;20036;-37
2023/03/03 00:59:34;;;;;;;2.97;0.60;;;;;;;0.69;87.84;97992.94;5049252;28;20051;-37
2023/03/03 01:01:59;;;;;;;3.53;0.70;;;;;;;0.65;87.72;98004.09;5065594;28;20044;-36
2023/03/03 01:04:25;;;;;;;1.58;0.98;;;;;;;0.66;88.17;98000.69;5066226;28;20152;-36
2023/03/03 01:06:51;;;;;;;2.88;1.10;;;;;;;0.69;88.31;97997.19;5066635;28;20036;-37
2023/03/03 01:09:17;;;;;;;4.38;0.85;;;;;;;0.73;88.57;97991.97;5065720;28;20048;-37
2023/03/03 01:11:43;;;;;;;6.97;0.93;;;;;;;0.72;88.46;98004.81;5068135;28;20045;-36
2023/03/03 01:14:09;;;;;;;6.18;1.17;;;;;;;0.71;89.66;97995.47;5070620;28;20045;-36
2023/03/03 01:16:34;;;;;;;4.57;1.25;;;;;;;0.60;89.92;97972.69;5069709;28;20083;-36
2023/03/03 01:19:00;;;;;;;1.63;0.75;;;;;;;0.69;90.31;97997.19;5068338;28;20788;-36
2023/03/03 01:21:26;;;;;;;3.33;0.98;;;;;;;0.69;90.78;97992.94;5066893;28;20512;-35
2023/03/03 01:23:52;;;;;;;4.22;0.98;;;;;;;0.69;91.23;97992.06;5067929;28;20044;-37
2023/03/03 01:26:18;;;;;;;7.03;1.25;;;;;;;0.55;91.53;97973.66;5069566;28;20032;-36
2023/03/03 01:28:44;;;;;;;3.38;1.25;;;;;;;0.67;92.04;97989.56;5071199;28;20055;-36
2023/03/03 01:31:11;;;;;;;3.20;0.90;;;;;;;0.65;92.34;97982.81;5071543;28;20040;-37
2023/03/03 01:33:37;;;;;;;3.42;1.27;;;;;;;0.51;92.66;97972.03;5070296;28;20090;-36
2023/03/03 01:36:03;;;;;;;4.63;1.20;;;;;;;0.65;93.08;97987.91;5066805;28;20032;-36
2023/03/03 01:38:30;;;;;;;2.95;1.08;;;;;;;0.67;93.14;97996.41;5069122;28;20074;-36
2023/03/03 01:40:58;;;;;;;2.40;0.70;;;;;;;0.69;93.23;97987.81;5068862;28;20036;-36
2023/03/03 01:43:28;;;;;;;6.10;1.63;;;;;;;0.53;93.42;97966.00;5070341;28;20519;-36
2023/03/03 01:45:57;;;;;;;1.95;0.80;;;;;;;0.75;93.15;97985.13;5068887;28;20044;-36
2023/03/03 01:48:53;;;;;;;8.52;1.40;;;;;;;0.74;93.53;97986.00;5070919;28;20040;-36
2023/03/03 01:51:22;;;;;;;4.28;0.95;;;;;;;0.76;93.71;97984.25;5059415;28;20504;-37
2023/03/03 01:53:51;;;;;;;2.10;1.15;;;;;;;0.78;93.58;97976.56;5069441;28;20048;-37
2023/03/03 01:56:17;;;;;;;2.70;1.63;;;;;;;0.62;93.64;97941.97;5070561;28;20044;-36
2023/03/03 01:58:49;;;;;;;7.15;2.38;;;;;;;0.77;93.96;97967.19;5052099;28;20500;-37
2023/03/03 02:01:18;;;;;;;3.42;1.75;;;;;;;0.86;93.88;97969.53;5049030;28;20523;-35
2023/03/03 02:03:44;;;;;;;5.78;1.85;;;;;;;0.88;94.02;97959.28;5067627;28;20618;-39
2023/03/03 02:06:14;;;;;;;4.13;1.50;;;;;;;0.92;93.97;97964.28;5068550;28;20079;-36
2023/03/03 02:09:13;;;;;;;1.90;1.25;;;;;;;0.93;93.38;97965.13;5051818;28;20098;-37
2023/03/03 02:11:42;;;;;;;0.88;0.63;;;;;;;0.90;93.03;97952.38;5063708;28;20061;-37
2023/03/03 02:14:09;;;;;;;4.05;1.15;;;;;;;0.88;93.05;97954.16;5052651;28;20842;-36
2023/03/03 02:16:40;;;;;;;4.25;1.27;;;;;;;0.93;92.97;97949.78;5069327;28;20090;-37
2023/03/03 02:19:09;;;;;;;3.10;0.70;;;;;;;0.94;92.84;97941.22;5066174;28;20049;-36
2023/03/03 02:21:34;;;;;;;5.70;2.22;;;;;;;0.89;92.75;97932.81;5067348;28;20143;-36
2023/03/03 02:24:23;;;;;;;5.65;1.30;;;;;;;1.03;92.79;97928.22;5067588;28;20669;-36
2023/03/03 02:26:49;;;;;;;3.38;1.42;;;;;;;0.99;92.06;97935.13;5068737;28;20043;-36
2023/03/03 02:29:15;;;;;;;2.83;1.25;;;;;;;0.96;92.42;97929.22;5052646;28;20079;-36
2023/03/03 02:31:41;;;;;;;5.50;1.55;;;;;;;0.92;92.09;97917.38;5050406;28;20040;-36
2023/03/03 02:34:08;;;;;;;2.67;1.00;;;;;;;0.99;92.19;97929.16;5068486;28;20040;-36
2023/03/03 02:36:37;;;;;;;7.18;1.90;;;;;;;0.97;92.56;97918.13;5068371;28;20082;-35
2023/03/03 02:39:14;;;;;;;6.95;1.80;;;;;;;1.02;92.79;97929.06;5084833;28;20864;-36
2023/03/03 02:41:52;;;;;;;3.80;1.42;;;;;;;1.06;92.58;97923.00;5067611;28;20040;-37
2023/03/03 02:44:21;;;;;;;5.15;1.70;;;;;;;1.02;92.34;97917.13;5076844;28;20048;-35
2023/03/03 02:46:49;;;;;;;5.40;1.38;;;;;;;1.15;91.91;97912.56;5067664;28;20058;-36
2023/03/03 02:49:19;;;;;;;3.25;1.50;;;;;;;1.16;91.87;97906.53;5050798;28;20055;-37
2023/03/03 02:51:45;;;;;;;7.85;2.40;;;;;;;0.94;91.40;97877.28;5068354;28;20094;-37
2023/03/03 02:54:12;;;;;;;4.75;1.40;;;;;;;1.11;91.79;97908.38;5050464;28;20552;-38
2023/03/03 02:56:38;;;;;;;6.22;1.63;;;;;;;0.93;91.67;97880.72;5068193;28;20042;-36
2023/03/03 02:59:04;;;;;;;1.13;0.70;;;;;;;1.12;91.89;97908.34;5051210;28;20072;-37
2023/03/03 03:01:37;;;;;;;1.98;1.13;;;;;;;1.06;91.64;97911.06;5050325;28;20423;-38
2023/03/03 03:04:09;;;;;;;4.65;1.58;;;;;;;1.01;91.83;97900.09;5052459;28;20043;-35
2023/03/03 03:06:35;;;;;;;3.10;1.30;;;;;;;0.88;92.26;97869.75;5051301;28;20044;-35
2023/03/03 03:09:04;;;;;;;5.50;1.48;;;;;;;1.05;92.36;97898.28;5050900;28;20060;-36
2023/03/03 03:11:31;;;;;;;6.65;1.83;;;;;;;1.09;92.42;97905.03;5065369;28;20052;-37
2023/03/03 03:13:57;;;;;;;4.55;1.25;;;;;;;1.02;92.46;97878.75;5068284;28;20040;-38
2023/03/03 03:16:24;;;;;;;5.40;1.98;;;;;;;1.18;92.39;97900.53;5068010;28;20039;-36
2023/03/03 03:18:50;;;;;;;8.82;2.25;;;;;;;1.22;92.02;97906.38;5067700;28;20427;-37
2023/03/03 03:21:16;;;;;;;7.38;1.50;;;;;;;1.21;92.11;97902.97;5084099;28;20053;-37
2023/03/03 03:23:42;;;;;;;2.47;1.42;;;;;;;1.16;92.31;97897.16;5068341;28;20040;-36
2023/03/03 03:26:10;;;;;;;4.75;1.58;;;;;;;1.14;93.13;97893.81;5066389;28;20086;-36
2023/03/03 03:28:36;;;;;;;2.97;1.55;;;;;;;1.09;93.12;97899.91;5084430;28;20515;-37
2023/03/03 03:31:04;;;;;;;6.30;2.13;;;;;;;0.84;93.71;97858.72;5067206;28;20086;-38
2023/03/03 03:33:30;;;;;;;2.08;1.08;;;;;;;1.09;93.82;97887.97;5084697;28;20048;-37
2023/03/03 03:35:57;;;;;;;7.57;1.67;;;;;;;1.12;93.76;97887.88;5067706;28;20058;-38
2023/03/03 03:38:25;;;;;;;4.18;1.15;;;;;;;1.05;93.61;97881.22;5066136;28;20044;-35
2023/03/03 03:40:53;;;;;;;4.35;1.50;;;;;;;1.05;94.18;97888.91;5082325;28;20068;-37
2023/03/03 03:43:19;;;;;;;4.22;2.15;;;;;;;1.12;93.97;97889.59;5050645;28;20050;-35
2023/03/03 03:45:46;;;;;;;7.30;1.42;;;;;;;1.11;94.41;97890.47;5065933;28;20041;-37
2023/03/03 03:48:14;;;;;;;9.27;3.00;;;;;;;1.10;94.19;97871.72;5068900;28;20458;-37
2023/03/03 03:50:41;;;;;;;1.42;0.85;;;;;;;1.09;93.69;97885.41;5067729;28;20040;-37
2023/03/03 03:53:07;;;;;;;2.55;1.60;;;;;;;1.07;94.32;97882.03;5068204;28;20044;-37
2023/03/03 03:55:33;;;;;;;6.00;1.83;;;;;;;1.01;94.28;97879.63;5065647;28;20396;-37
2023/03/03 03:57:59;;;;;;;6.78;1.40;;;;;;;1.02;94.38;97881.31;5067209;28;20037;-37
2023/03/03 04:00:25;;;;;;;4.95;1.00;;;;;;;0.96;94.49;97881.47;5048986;28;20090;-37
2023/03/03 04:02:56;;;;;;;4.93;1.10;;;;;;;0.97;95.18;97869.50;5051458;28;20044;-37
2023/03/03 04:05:23;;;;;;;2.75;1.40;;;;;;;0.80;95.20;97847.75;5067517;28;20098;-35
2023/03/03 04:07:49;;;;;;;6.05;2.20;;;;;;;0.94;95.35;97867.88;5066671;28;20499;-36
2023/03/03 04:10:17;;;;;;;7.63;2.30;;;;;;;0.93;95.73;97865.34;5049389;28;20048;-37
2023/03/03 04:12:44;;;;;;;10.25;2.58;;;;;;;0.96;95.71;97860.16;5065910;28;20097;-37
2023/03/03 04:15:14;;;;;;;2.40;1.37;;;;;;;0.91;95.80;97860.28;5084042;28;20475;-37
2023/03/03 04:17:40;;;;;;;5.78;1.67;;;;;;;0.94;96.43;97862.78;5045706;28;20064;-36
2023/03/03 04:20:09;;;;;;;1.38;1.08;;;;;;;0.95;96.24;97859.31;5062525;28;20055;-37
2023/03/03 04:22:37;;;;;;;7.53;1.42;;;;;;;0.90;96.52;97857.75;5097338;28;20416;-35
2023/03/03 04:25:05;;;;;;;6.00;1.88;;;;;;;0.81;96.89;97852.00;5064767;28;20048;-36
2023/03/03 04:27:36;;;;;;;5.43;2.17;;;;;;;0.91;97.08;97864.53;5045321;28;20480;-37
2023/03/03 04:30:05;;;;;;;6.70;1.42;;;;;;;0.92;96.88;97858.56;5081200;28;20545;-38
2023/03/03 04:32:32;;;;;;;5.50;1.43;;;;;;;0.94;96.84;97854.25;5045766;28;20048;-38
2023/03/03 04:34:59;;;;;;;6.18;1.92;;;;;;;1.04;96.98;97853.13;5049088;28;20286;-37
2023/03/03 04:37:26;;;;;;;6.05;1.70;;;;;;;1.04;96.05;97855.69;5065601;28;20039;-37
2023/03/03 04:39:51;;;;;;;9.20;1.55;;;;;;;1.06;95.82;97847.09;5047034;28;20036;-37
2023/03/03 04:42:18;;;;;;;6.80;1.77;;;;;;;1.01;95.39;97850.63;5065389;28;20098;-37
2023/03/03 04:44:44;;;;;;;5.78;1.55;;;;;;;1.00;95.26;97857.47;5095723;28;20044;-38
2023/03/03 04:47:10;;;;;;;4.00;1.33;;;;;;;0.93;95.29;97850.84;5034104;28;20048;-37
2023/03/03 04:49:37;;;;;;;7.07;1.70;;;;;;;0.93;95.63;97852.56;5053004;28;20139;-37
2023/03/03 04:52:04;;;;;;;5.85;1.55;;;;;;;0.98;95.48;97860.97;5052238;28;20046;-38
2023/03/03 04:54:30;;;;;;;5.93;1.52;;;;;;;0.95;95.33;97861.03;5054345;28;20423;-38
2023/03/03 04:56:57;;;;;;;3.70;1.38;;;;;;;1.01;95.11;97863.44;5069301;28;20118;-37
2023/03/03 04:59:23;;;;;;;3.65;1.42;;;;;;;0.94;95.27;97854.25;5051447;28;20048;-37
2023/03/03 05:01:49;;;;;;;1.33;1.10;;;;;;;0.94;95.02;97856.81;5069524;28;20093;-37
2023/03/03 05:04:16;;;;;;;5.47;1.33;;;;;;;0.98;95.28;97853.28;5068280;28;20131;-37
2023/03/03 05:06:42;;;;;;;3.08;1.33;;;;;;;0.86;94.55;97844.19;5086840;28;20048;-37
2023/03/03 05:09:08;;;;;;;5.75;1.35;;;;;;;1.04;94.68;97863.38;5064942;28;20454;-36
2023/03/03 05:11:34;;;;;;;3.60;1.17;;;;;;;1.02;94.06;97865.97;5069540;28;20144;-39
2023/03/03 05:14:01;;;;;;;7.30;2.58;;;;;;;0.76;94.20;97819.75;5049892;28;20105;-38
2023/03/03 05:16:28;;;;;;;3.75;1.30;;;;;;;1.07;93.67;97864.13;5063744;28;20040;-37
2023/03/03 05:18:54;;;;;;;4.03;1.35;;;;;;;1.15;94.09;97874.97;5067177;28;20151;-37
2023/03/03 05:21:20;;;;;;;7.68;1.50;;;;;;;0.76;93.29;97809.50;5053268;28;20036;-38
2023/03/03 05:23:46;;;;;;;6.40;1.60;;;;;;;1.05;93.54;97868.44;5069001;28;20088;-36
2023/03/03 05:26:12;;;;;;;1.85;0.88;;;;;;;1.05;93.01;97858.19;5053158;28;20032;-39
2023/03/03 05:28:38;;;;;;;3.75;1.20;;;;;;;1.00;92.83;97869.41;5070111;28;20135;-37
2023/03/03 05:31:04;;;;;;;5.05;1.50;;;;;;;1.06;92.98;97864.16;5068765;28;20060;-36
2023/03/03 05:33:30;;;;;;;9.43;1.83;;;;;;;1.08;92.92;97868.38;5070786;28;20033;-36
2023/03/03 05:35:56;;;;;;;3.60;1.00;;;;;;;1.11;92.15;97867.44;5070763;28;20055;-37
2023/03/03 05:38:23;;;;;;;5.43;1.92;;;;;;;1.11;92.05;97865.72;5084248;28;20508;-38
2023/03/03 05:40:50;;;;;;;5.80;1.48;;;;;;;0.93;91.85;97832.09;5069911;28;20529;-36
2023/03/03 05:43:16;;;;;;;1.90;0.80;;;;;;;0.98;91.46;97851.56;5070509;28;20045;-36
2023/03/03 05:45:42;;;;;;;5.15;1.40;;;;;;;1.12;90.72;97866.56;5069230;28;20538;-36
2023/03/03 05:48:09;;;;;;;2.92;0.80;;;;;;;0.96;90.24;97839.69;5085371;28;20036;-36
2023/03/03 05:50:35;;;;;;;6.25;1.95;;;;;;;1.14;90.14;97865.66;5085759;28;20043;-37
2023/03/03 05:53:01;;;;;;;5.88;1.10;;;;;;;1.16;89.94;97871.56;5068862;28;20470;-38
2023/03/03 05:55:27;;;;;;;2.85;0.88;;;;;;;1.19;88.87;97873.22;5067657;28;20051;-37
2023/03/03 05:57:54;;;;;;;8.60;1.33;;;;;;;1.13;88.96;97871.66;5069385;28;20040;-37
2023/03/03 06:00:20;;;;;;;7.32;1.48;;;;;;;1.13;88.80;97871.66;5066859;28;20048;-36
2023/03/03 06:02:46;;;;;;;6.18;1.52;;;;;;;1.17;88.80;97865.56;5052430;28;20051;-38
2023/03/03 06:05:12;;;;;;;4.20;1.27;;;;;;;1.17;88.55;97862.16;5068108;28;20040;-37
2023/03/03 06:07:38;;;;;;;8.07;2.20;;;;;;;1.22;88.65;97873.13;5068512;28;20033;-36
2023/03/03 06:10:04;;;;;;;7.45;1.90;;;;;;;1.21;88.79;97884.22;5066643;28;20085;-39
2023/03/03 06:12:34;;;;;;;4.18;1.13;;;;;;;1.18;88.44;97877.47;5042915;28;20087;-38
2023/03/03 06:15:00;;;;;;;4.57;1.15;;;;;;;0.99;88.71;97858.38;5034696;28;20044;-37
2023/03/03 06:17:26;;;;;;;7.15;1.70;;;;;;;1.20;88.82;97873.16;5052654;28;20181;-39
2023/03/03 06:19:52;;;;;;;9.20;2.20;;;;;;;1.32;88.86;97884.78;5070363;28;20668;-36
2023/03/03 06:22:18;;;;;;;9.00;1.60;;;;;;;1.45;88.48;97881.03;5068119;28;20068;-36
2023/03/03 06:24:43;;;;;;;7.78;1.38;;;;;;;1.55;88.47;97877.34;5066754;28;20427;-37
2023/03/03 06:27:09;;;;;;;14.23;1.73;;;;;;;1.58;87.76;97887.50;5051179;28;20436;-37
2023/03/03 06:29:35;;;;;;;11.02;2.88;;;;;;;1.65;86.98;97885.63;5067960;28;20200;-37
2023/03/03 06:32:01;;;;;;;7.45;1.38;;;;;;;1.79;86.69;97880.94;5067427;28;20044;-36
2023/03/03 06:34:27;;;;;;;6.03;1.60;;;;;;;1.86;86.17;97885.00;5067772;28;20063;-36
2023/03/03 06:36:53;;;;;;;9.00;1.65;;;;;;;1.79;85.24;97882.66;5067672;28;20510;-36
2023/03/03 06:39:19;;;;;;;5.43;2.05;;;;;;;1.77;84.77;97874.19;5048235;28;20436;-36
2023/03/03 06:41:45;;;;;;;7.32;2.20;;;;;;;1.76;84.26;97878.47;5048943;28;20048;-36
2023/03/03 06:44:10;;;;;;;12.60;3.20;;;;;;;1.82;83.58;97883.44;5057758;28;20047;-37
2023/03/03 06:46:36;;;;;;;6.60;2.63;;;;;;;1.88;83.05;97887.53;5065989;28;20049;-36
2023/03/03 06:49:02;;;;;;;15.70;2.17;;;;;;;1.92;82.43;97887.41;5084172;28;20136;-37
2023/03/03 06:51:34;;;;;;;11.68;2.25;;;;;;;1.92;82.33;97884.00;5049537;28;20048;-38
2023/03/03 06:54:10;;;;;;;5.85;1.80;;;;;;;2.04;82.11;97888.78;5069515;28;20036;-36
2023/03/03 06:56:37;;;;;;;5.35;1.67;;;;;;;1.88;81.53;97892.66;5065131;28;20689;-37
2023/03/03 06:59:13;;;;;;;2.47;1.05;;;;;;;1.87;82.04;97878.16;5035305;28;20040;-36
2023/03/03 07:01:40;;;;;;;3.15;1.90;;;;;;;1.80;83.06;97881.78;5063786;28;20040;-36
2023/03/03 07:04:24;;;;;;;7.47;1.85;;;;;;;1.59;84.94;97862.72;5066332;28;20516;-37
2023/03/03 07:06:50;;;;;;;7.05;1.85;;;;;;;1.37;86.29;97867.59;5049359;28;20051;-37
2023/03/03 07:09:25;;;;;;;8.20;1.52;;;;;;;1.54;87.46;97887.63;5066049;28;20043;-37
2023/03/03 07:11:53;;;;;;;4.57;1.35;;;;;;;1.38;88.13;97899.16;5051771;28;20053;-36
2023/03/03 07:14:20;;;;;;;6.55;2.15;;;;;;;1.26;89.68;97893.47;5067241;28;20055;-38
2023/03/03 07:16:46;;;;;;;3.58;1.48;;;;;;;1.23;90.48;97908.91;5065959;28;20144;-38
2023/03/03 07:19:19;;;;;;;7.82;1.65;;;;;;;1.13;90.58;97904.91;5067535;28;20131;-37
2023/03/03 07:21:45;;;;;;;9.70;2.00;;;;;;;1.15;91.10;97892.91;5067656;28;20443;-39
2023/03/03 07:24:28;;;;;;;19.98;6.75;;;;;;;1.27;91.86;97895.16;5065144;28;20048;-37
2023/03/03 07:26:59;;;;;;;8.13;2.05;;;;;;;1.43;92.20;97897.31;5068084;28;20036;-36
2023/03/03 07:29:27;;;;;;;4.53;1.23;;;;;;;1.45;91.89;97904.09;5067244;28;20098;-36
2023/03/03 07:31:55;;;;;;;6.97;2.45;;;;;;;1.25;92.10;97896.09;5068425;28;20075;-37
2023/03/03 07:34:24;;;;;;;9.98;1.48;;;;;;;1.04;92.85;97859.09;5068656;28;20549;-36
2023/03/03 07:36:53;;;;;;;12.40;2.05;;;;;;;1.40;93.43;97903.38;5064756;28;20044;-36
2023/03/03 07:39:36;;;;;;;6.90;1.65;;;;;;;1.22;93.06;97868.00;5067654;28;20052;-37
2023/03/03 07:42:12;;;;;;;6.95;1.33;;;;;;;1.30;92.70;97906.19;5050904;28;20045;-37
2023/03/03 07:44:38;;;;;;;7.90;1.33;;;;;;;1.13;92.52;97879.31;5068312;28;20131;-36
2023/03/03 07:47:16;;;;;;;8.25;1.27;;;;;;;1.37;92.16;97902.59;5074464;28;20160;-36
2023/03/03 07:49:42;;;;;;;4.72;1.17;;;;;;;1.42;91.72;97891.34;5071760;28;20036;-36
2023/03/03 07:52:28;;;;;;;6.32;1.27;;;;;;;1.32;91.19;97900.16;5072210;28;20036;-39
2023/03/03 07:54:56;;;;;;;11.18;1.58;;;;;;;1.36;91.09;97904.31;5064048;28;20505;-35
2023/03/03 07:57:26;;;;;;;7.03;1.85;;;;;;;1.33;91.77;97898.44;5038702;28;20127;-35
2023/03/03 08:00:01;;;;;;;8.70;2.15;;;;;;;1.44;91.98;97912.63;5076222;28;20055;-36
2023/03/03 08:03:03;;;;;;;6.10;1.42;;;;;;;1.45;91.62;97906.63;5061662;28;20036;-37
2023/03/03 08:05:42;;;;;;;5.22;1.90;;;;;;;1.38;91.36;97909.38;5076697;28;20093;-36
2023/03/03 08:08:29;;;;;;;9.90;2.15;;;;;;;1.44;91.93;97907.50;5065746;28;20040;-36
2023/03/03 08:10:57;;;;;;;11.38;2.30;;;;;;;1.66;90.91;97903.50;5067645;28;20540;-37
2023/03/03 08:13:32;;;;;;;9.60;2.30;;;;;;;1.66;90.85;97910.34;5063367;28;20127;-37
2023/03/03 08:16:10;;;;;;;6.35;1.55;;;;;;;1.82;90.98;97919.28;5065991;28;20073;-37
2023/03/03 08:18:37;;;;;;;7.32;1.88;;;;;;;1.68;89.47;97914.53;5066816;28;20047;-36
2023/03/03 08:21:23;;;;;;;8.00;2.08;;;;;;;1.73;89.43;97914.41;5062818;28;20040;-37
2023/03/03 08:23:50;;;;;;;3.95;1.33;;;;;;;1.73;88.84;97916.97;5085853;28;20126;-37
2023/03/03 08:26:21;;;;;;;7.15;1.75;;;;;;;1.75;88.90;97910.09;5062920;28;20048;-36
2023/03/03 08:28:47;;;;;;;8.13;2.95;;;;;;;1.74;88.22;97922.94;5067080;28;20028;-37
2023/03/03 08:31:13;;;;;;;4.78;1.48;;;;;;;1.78;87.91;97919.41;5067664;28;20044;-37
2023/03/03 08:33:39;;;;;;;4.45;1.02;;;;;;;1.64;87.41;97883.94;5060853;28;20068;-36
2023/03/03 08:36:06;;;;;;;4.30;0.80;;;;;;;1.82;87.48;97915.88;5062537;28;20078;-36
2023/03/03 08:38:32;;;;;;;6.72;1.55;;;;;;;1.75;87.17;97917.78;5067704;28;20586;-36
2023/03/03 08:40:59;;;;;;;7.18;1.70;;;;;;;2.02;87.67;97916.16;5045921;28;20064;-37
2023/03/03 08:43:25;;;;;;;5.90;1.90;;;;;;;2.26;87.11;97920.56;5064583;28;20278;-36
2023/03/03 08:45:53;;;;;;;5.22;1.83;;;;;;;2.32;87.15;97929.81;5064254;28;20516;-37
2023/03/03 08:48:20;;;;;;;5.72;1.50;;;;;;;2.37;86.67;97922.81;5080181;28;20036;-36
2023/03/03 08:50:46;;;;;;;5.88;1.50;;;;;;;2.62;86.01;97920.38;5068209;28;20051;-37
2023/03/03 08:53:12;;;;;;;7.53;1.85;;;;;;;2.82;85.25;97924.00;5063636;28;20400;-36
2023/03/03 08:55:39;;;;;;;4.85;1.35;;;;;;;3.02;84.53;97925.06;5065433;28;20993;-37
2023/03/03 08:58:05;;;;;;;11.07;1.83;;;;;;;2.70;83.43;97933.78;5063005;28;20054;-37
2023/03/03 09:00:31;;;;;;;10.13;2.40;;;;;;;2.70;83.78;97931.22;5070211;28;20041;-35
2023/03/03 09:02:57;;;;;;;8.45;1.55;;;;;;;2.78;83.90;97936.94;5071479;28;20051;-37
2023/03/03 09:05:24;;;;;;;5.78;2.20;;;;;;;2.71;83.65;97923.47;5085461;28;20468;-36
2023/03/03 09:07:50;;;;;;;5.70;1.73;;;;;;;3.07;83.59;97938.59;5067644;28;20113;-36
2023/03/03 09:10:21;;;;;;;7.57;1.33;;;;;;;3.37;83.17;97935.00;5070168;28;20057;-37
2023/03/03 09:12:47;;;;;;;4.15;1.58;;;;;;;3.28;82.52;97936.16;5082166;28;20048;-37
2023/03/03 09:15:33;;;;;;;6.43;1.98;;;;;;;3.11;82.22;97906.78;5062412;28;20045;-36
2023/03/03 09:18:12;;;;;;;3.65;1.92;;;;;;;3.13;82.11;97928.97;5067179;28;20098;-36
2023/03/03 09:20:43;;;;;;;6.50;1.38;;;;;;;3.30;82.65;97923.25;5065686;28;20040;-36
2023/03/03 09:23:30;;;;;;;3.88;1.40;;;;;;;3.31;82.30;97924.94;5065587;28;20080;-36
2023/03/03 09:26:05;;;;;;;4.75;1.65;;;;;;;3.33;82.80;97928.31;5063343;28;20036;-35
2023/03/03 09:28:32;;;;;;;4.38;1.50;;;;;;;3.23;82.58;97927.78;5062502;28;20485;-35
2023/03/03 09:31:00;;;;;;;8.15;1.48;;;;;;;3.36;83.38;97935.91;5067321;28;20423;-36
2023/03/03 09:33:41;;;;;;;6.60;1.58;;;;;;;3.43;83.24;97937.38;5068897;28;20043;-35
2023/03/03 09:36:32;;;;;;;4.05;1.70;;;;;;;3.34;82.80;97935.97;5064977;28;20059;-35
2023/03/03 09:38:58;;;;;;;14.52;2.03;;;;;;;3.15;83.00;97936.59;5068160;28;20036;-36
2023/03/03 09:41:50;;;;;;;4.07;1.50;;;;;;;2.81;83.82;97894.06;5065202;28;20466;-37
2023/03/03 09:45:01;;;;;;;4.53;1.15;;;;;;;3.04;83.62;97946.38;5060073;28;20049;-36
2023/03/03 09:47:57;;;;;;;5.93;1.75;;;;;;;2.78;84.09;97942.91;4979950;28;20045;-35
2023/03/03 09:51:12;;;;;;;5.90;1.83;;;;;;;2.70;84.34;97931.22;5061875;28;20044;-38
2023/03/03 09:53:40;;;;;;;7.03;1.60;;;;;;;2.88;84.18;97938.31;5053537;28;20541;-35
2023/03/03 09:56:24;;;;;;;7.13;1.80;;;;;;;3.07;83.88;97942.00;5062353;28;20673;-35
2023/03/03 09:59:28;;;;;;;4.68;1.42;;;;;;;3.22;83.80;97936.38;5063583;28;20302;-36
2023/03/03 10:02:12;;;;;;;3.45;1.50;;;;;;;3.12;83.00;97940.13;5057586;28;20072;-37
2023/03/03 10:04:53;;;;;;;3.40;1.20;;;;;;;3.07;81.85;97929.16;5067592;28;20082;-36
2023/03/03 10:07:43;;;;;;;5.70;1.88;;;;;;;3.26;82.18;97939.66;5061035;28;20110;-36
2023/03/03 10:10:15;;;;;;;4.03;1.45;;;;;;;3.24;81.35;97920.91;5064232;28;20154;-36
2023/03/03 10:13:06;;;;;;;6.25;1.48;;;;;;;3.20;80.72;97935.56;5065890;28;20044;-36
2023/03/03 10:15:51;;;;;;;2.17;0.82;;;;;;;2.93;79.29;97931.34;5059935;28;20500;-38
2023/03/03 10:18:23;;;;;;;5.20;1.50;;;;;;;2.75;79.43;97917.38;5097322;28;20041;-37
2023/03/03 10:21:42;;;;;;;4.80;1.52;;;;;;;2.98;80.03;97926.91;5065558;28;20061;-37
2023/03/03 10:24:30;;;;;;;5.68;1.42;;;;;;;3.24;79.56;97926.91;4999709;28;20046;-38
2023/03/03 10:27:02;;;;;;;4.15;1.40;;;;;;;3.35;79.42;97935.06;5072362;28;20090;-36
2023/03/03 10:29:43;;;;;;;4.85;1.33;;;;;;;3.36;79.13;97934.16;5064874;28;20071;-38
2023/03/03 10:32:24;;;;;;;9.02;1.75;;;;;;;3.38;77.65;97923.84;5065205;28;20044;-37
2023/03/03 10:35:27;;;;;;;6.82;1.25;;;;;;;3.53;77.04;97925.06;5063108;28;20044;-36
2023/03/03 10:38:03;;;;;;;6.70;1.10;;;;;;;3.61;75.95;97925.66;5047443;28;20040;-35
2023/03/03 10:41:04;;;;;;;7.38;1.20;;;;;;;3.60;75.63;97924.81;5061706;28;20037;-35
2023/03/03 10:43:45;;;;;;;5.97;1.20;;;;;;;3.33;74.11;97921.44;5027141;28;20057;-36
2023/03/03 10:46:36;;;;;;;6.85;1.45;;;;;;;3.52;73.86;97925.94;5077890;28;20591;-36
2023/03/03 10:49:26;;;;;;;1.42;0.50;;;;;;;3.82;73.28;97930.03;5058963;28;20957;-36
2023/03/03 10:52:17;;;;;;;6.78;1.35;;;;;;;3.53;71.79;97920.75;5055774;28;20036;-36
2023/03/03 10:55:15;;;;;;;4.90;1.38;;;;;;;3.91;71.93;97919.41;5080764;28;20051;-36
2023/03/03 10:58:00;;;;;;;3.28;0.88;;;;;;;4.16;70.10;97929.66;5045843;28;20092;-35
2023/03/03 11:00:34;;;;;;;5.10;1.30;;;;;;;4.15;69.70;97925.38;5066207;28;20122;-38
2023/03/03 11:03:30;;;;;;;5.95;1.77;;;;;;;4.93;68.80;97928.38;5062594;28;20048;-36
2023/03/03 11:06:01;;;;;;;4.78;1.20;;;;;;;5.52;66.73;97924.22;5065713;28;20040;-37
2023/03/03 11:08:27;;;;;;;4.38;1.13;;;;;;;5.55;65.97;97939.53;5066282;28;20047;-36
2023/03/03 11:11:20;;;;;;;5.88;1.23;;;;;;;5.19;65.18;97925.59;5064179;28;20056;-35
2023/03/03 11:14:02;;;;;;;7.05;1.45;;;;;;;5.15;65.08;97907.75;5055604;28;20044;-42
2023/03/03 11:16:50;;;;;;;7.95;1.20;;;;;;;5.25;64.79;97933.06;5062758;28;20028;-35
2023/03/03 11:19:39;;;;;;;4.13;1.67;;;;;;;5.33;64.32;97937.94;5066415;28;20067;-36
2023/03/03 11:22:32;;;;;;;4.07;0.90;;;;;;;5.18;64.21;97930.84;5064205;28;20036;-35
2023/03/03 11:25:13;;;;;;;8.88;1.50;;;;;;;4.54;64.68;97917.94;5062369;28;20171;-35
2023/03/03 11:28:10;;;;;;;3.08;1.15;;;;;;;4.40;65.41;97941.59;5064745;28;20411;-36
2023/03/03 11:30:47;;;;;;;1.10;0.63;;;;;;;4.08;66.75;97939.38;5069254;28;20036;-36
2023/03/03 11:33:25;;;;;;;10.10;1.77;;;;;;;3.99;67.98;97937.13;5066015;28;20037;-36
2023/03/03 11:36:04;;;;;;;6.03;1.30;;;;;;;3.89;68.28;97931.47;5065410;28;20048;-35
2023/03/03 11:38:30;;;;;;;4.10;1.45;;;;;;;3.86;68.87;97947.03;5066212;28;20040;-37
2023/03/03 11:41:02;;;;;;;9.60;1.83;;;;;;;3.69;68.99;97939.91;5062253;28;20711;-36
2023/03/03 11:43:38;;;;;;;2.55;1.33;;;;;;;3.88;69.04;97949.50;5056158;28;20068;-35
2023/03/03 11:46:36;;;;;;;7.05;1.80;;;;;;;3.58;69.60;97946.28;5065308;28;20097;-35
2023/03/03 11:49:54;;;;;;;3.38;1.20;;;;;;;3.60;70.16;97949.66;5038423;28;20076;-36
2023/03/03 11:52:41;;;;;;;5.97;1.33;;;;;;;3.53;70.82;97949.03;5030938;28;20431;-36
2023/03/03 11:55:13;;;;;;;15.82;1.85;;;;;;;4.04;70.75;97948.91;5064862;28;20051;-36
2023/03/03 11:57:45;;;;;;;2.90;1.20;;;;;;;4.83;69.25;97943.34;5090977;28;20415;-37
2023/03/03 12:00:30;;;;;;;5.55;1.15;;;;;;;5.00;67.76;97947.84;5077960;28;20143;-35
2023/03/03 12:03:17;;;;;;;6.80;1.25;;;;;;;5.02;67.29;97938.34;5061927;28;20036;-36
2023/03/03 12:06:07;;;;;;;7.80;1.30;;;;;;;4.75;66.55;97945.41;5064801;28;20504;-36